This is the latest recevied weather packets stored in our database for station/object KD2FGL-13. If no packets are shown the sender has not sent any weather packets the latest 10 day(s).
| Time | Temp. | Humidity | Pressure | Rain* | Wind** | Luminosity | Snow |
|---|---|---|---|---|---|---|---|
| 1787936121 | 28.33° C | 44% | 1018.6 hPa | 0 mm | - | - | - |
| 1787935516 | 28.33° C | 44% | 1018.7 hPa | 0 mm | - | - | - |
| 1787935210 | 28.33° C | 44% | 1018.7 hPa | 0 mm | - | - | - |
| 1787934298 | 28.33° C | 44% | 1019 hPa | 0 mm | - | - | - |
| 1787933387 | 28.33° C | 45% | 1019.1 hPa | 0 mm | - | - | - |
| 1787933082 | 28.33° C | 45% | 1019 hPa | 0 mm | - | - | - |
| 1787932778 | 28.33° C | 45% | 1019.1 hPa | 0 mm | - | - | - |
| 1787931867 | 28.33° C | 47% | 1019.1 hPa | 0 mm | - | - | - |
| 1787930346 | 28.33° C | 47% | 1019.2 hPa | 0 mm | - | - | - |
| 1787930043 | 28.33° C | 47% | 1019.2 hPa | 0 mm | - | - | - |
| 1787929434 | 27.78° C | 50% | 1019.1 hPa | 0 mm | - | - | - |
| 1787926699 | 26.67° C | 51% | 1018.9 hPa | 0 mm | - | - | - |
| 1787925790 | 27.22° C | 51% | 1018.8 hPa | 0 mm | - | - | - |
| 1787925484 | 27.22° C | 51% | 1018.7 hPa | 0 mm | - | - | - |
| 1787924876 | 27.22° C | 52% | 1018.7 hPa | 0 mm | - | - | - |
| 1787913630 | 22.22° C | 61% | 1017.7 hPa | 0 mm | - | - | - |
| 1787910288 | 22.22° C | 61% | 1017 hPa | 0 mm | - | - | - |
| 1787909072 | 22.22° C | 61% | 1016.9 hPa | 0 mm | - | - | - |
| 1787907857 | 22.22° C | 61% | 1016.7 hPa | 0 mm | - | - | - |
| 1787907248 | 22.22° C | 61% | 1016.6 hPa | 0 mm | - | - | - |
| 1787906945 | 22.22° C | 61% | 1016.7 hPa | 0 mm | - | - | - |
| 1787905729 | 22.22° C | 61% | 1016.6 hPa | 0 mm | - | - | - |
| 1787905121 | 22.22° C | 61% | 1016.6 hPa | 0 mm | - | - | - |
| 1787904819 | 22.22° C | 60% | 1016.6 hPa | 0 mm | - | - | - |
| 1787904209 | 22.22° C | 60% | 1016.6 hPa | 0 mm | - | - | - |
* Rain since midnight (hover to see other rain measurements)
** Current wind speed in m/s (hover to see current wind gust speed)